createdAt,value
2024-04-09T00:01:39.752Z,16.20
2024-04-09T00:04:06.980Z,16.20
2024-04-09T00:06:34.323Z,16.10
2024-04-09T00:09:01.859Z,16.10
2024-04-09T00:11:29.179Z,16.00
2024-04-09T00:14:00.084Z,15.90
2024-04-09T00:16:30.156Z,15.80
2024-04-09T00:19:00.180Z,15.80
2024-04-09T00:21:31.126Z,15.80
2024-04-09T00:24:00.024Z,15.70
2024-04-09T00:26:30.656Z,15.70
2024-04-09T00:28:57.801Z,15.60
2024-04-09T00:31:28.621Z,15.60
2024-04-09T00:33:56.833Z,15.50
2024-04-09T00:36:24.172Z,15.50
2024-04-09T00:38:51.689Z,15.50
2024-04-09T00:41:18.825Z,15.60
2024-04-09T00:43:47.013Z,15.70
2024-04-09T00:46:17.424Z,15.70
2024-04-09T00:48:45.714Z,15.80
2024-04-09T00:51:16.363Z,15.80
2024-04-09T00:53:45.505Z,15.70
2024-04-09T00:56:13.548Z,15.60
2024-04-09T00:58:41.566Z,15.60
2024-04-09T01:01:14.741Z,15.60
2024-04-09T01:03:42.897Z,15.60
2024-04-09T01:06:10.932Z,15.60
2024-04-09T01:08:38.703Z,15.70
2024-04-09T01:11:06.427Z,15.60
2024-04-09T01:13:33.667Z,15.60
2024-04-09T01:16:02.550Z,15.60
2024-04-09T01:18:29.793Z,15.60
2024-04-09T01:20:57.271Z,15.60
2024-04-09T01:23:24.389Z,15.60
2024-04-09T01:25:51.784Z,15.60
2024-04-09T01:28:19.984Z,15.60
2024-04-09T01:30:48.015Z,15.60
2024-04-09T01:33:15.308Z,15.60
2024-04-09T01:35:42.441Z,15.60
2024-04-09T01:38:09.921Z,15.60
2024-04-09T01:40:36.985Z,15.70
2024-04-09T01:43:04.330Z,15.70
2024-04-09T01:45:31.644Z,15.70
2024-04-09T01:47:59.409Z,15.60
2024-04-09T01:50:27.774Z,15.50
2024-04-09T01:52:55.439Z,15.40
2024-04-09T01:55:24.094Z,15.30
2024-04-09T01:57:51.161Z,15.30
2024-04-09T02:00:26.046Z,15.30
2024-04-09T02:02:54.323Z,15.30
2024-04-09T02:05:22.176Z,15.30
2024-04-09T02:07:49.907Z,15.30
2024-04-09T02:10:17.130Z,15.30
2024-04-09T02:12:44.569Z,15.30
2024-04-09T02:15:14.553Z,15.30
2024-04-09T02:17:42.338Z,15.30
2024-04-09T02:20:11.756Z,15.30
2024-04-09T02:22:39.193Z,15.30
2024-04-09T02:25:06.761Z,15.30
2024-04-09T02:27:34.499Z,15.20
2024-04-09T02:30:04.368Z,15.20
2024-04-09T02:32:33.170Z,15.10
2024-04-09T02:35:00.433Z,15.10
2024-04-09T02:37:27.490Z,15.20
2024-04-09T02:39:54.544Z,15.30
2024-04-09T02:42:22.069Z,15.30
2024-04-09T02:44:49.278Z,15.40
2024-04-09T02:47:16.586Z,15.40
2024-04-09T02:49:45.534Z,15.50
2024-04-09T02:52:12.965Z,15.50
2024-04-09T02:54:42.939Z,15.50
2024-04-09T02:57:11.856Z,15.50
2024-04-09T02:59:40.715Z,15.50
2024-04-09T03:02:08.406Z,15.50
2024-04-09T03:04:35.942Z,15.50
2024-04-09T03:07:05.151Z,15.50
2024-04-09T03:09:33.159Z,15.50
2024-04-09T03:12:02.293Z,15.50
2024-04-09T03:14:30.625Z,15.50
2024-04-09T03:16:58.008Z,15.40
2024-04-09T03:19:25.234Z,15.30
2024-04-09T03:21:52.416Z,15.30
2024-04-09T03:24:19.588Z,15.30
2024-04-09T03:26:46.810Z,15.30
2024-04-09T03:29:14.434Z,15.30
2024-04-09T03:31:41.791Z,15.20
2024-04-09T03:34:09.370Z,15.20
2024-04-09T03:36:36.596Z,15.10
2024-04-09T03:39:05.885Z,15.00
2024-04-09T03:41:33.254Z,15.00
2024-04-09T03:44:02.581Z,14.90
2024-04-09T03:46:29.734Z,14.90
2024-04-09T03:48:57.083Z,14.90
2024-04-09T03:51:24.402Z,15.00
2024-04-09T03:53:51.656Z,15.00
2024-04-09T03:56:18.845Z,14.90
2024-04-09T03:58:50.815Z,14.80
2024-04-09T04:01:18.007Z,14.80
2024-04-09T04:03:49.948Z,14.80
2024-04-09T04:06:17.466Z,14.80
2024-04-09T04:08:45.518Z,14.80
2024-04-09T04:11:14.241Z,14.70
2024-04-09T04:13:42.421Z,14.60
2024-04-09T04:16:14.947Z,14.60
2024-04-09T04:18:47.367Z,14.50
2024-04-09T04:21:19.934Z,14.50
2024-04-09T04:23:48.754Z,14.50
2024-04-09T04:26:23.244Z,14.40
2024-04-09T04:28:51.430Z,14.40
2024-04-09T04:31:20.757Z,14.30
2024-04-09T04:33:49.776Z,14.30
2024-04-09T04:36:17.887Z,14.30
2024-04-09T04:38:46.199Z,14.40
2024-04-09T04:41:13.642Z,14.40
2024-04-09T04:43:41.797Z,14.40
2024-04-09T04:46:09.354Z,14.30
2024-04-09T04:48:37.120Z,14.30
2024-04-09T04:51:05.288Z,14.30
2024-04-09T04:53:32.567Z,14.30
2024-04-09T04:56:00.044Z,14.40
2024-04-09T04:58:27.800Z,14.50
2024-04-09T05:00:55.576Z,14.50
2024-04-09T05:03:22.964Z,14.50
2024-04-09T05:05:50.411Z,14.40
2024-04-09T05:08:18.659Z,14.40
2024-04-09T05:10:46.059Z,14.40
2024-04-09T05:13:13.175Z,14.40
2024-04-09T05:15:40.330Z,14.50
2024-04-09T05:18:09.633Z,14.50
2024-04-09T05:20:37.886Z,14.60
2024-04-09T05:23:05.567Z,14.60
2024-04-09T05:25:35.235Z,14.60
2024-04-09T05:28:02.658Z,14.70
2024-04-09T05:30:30.475Z,14.70
2024-04-09T05:32:58.124Z,14.70
2024-04-09T05:35:27.653Z,14.70
2024-04-09T05:37:55.325Z,14.80
2024-04-09T05:40:22.475Z,14.90
2024-04-09T05:42:50.147Z,14.90
2024-04-09T05:45:20.922Z,14.90
2024-04-09T05:47:48.755Z,14.90
2024-04-09T05:50:16.238Z,14.90
2024-04-09T05:52:43.536Z,15.00
2024-04-09T05:55:13.294Z,15.10
2024-04-09T05:57:41.995Z,15.10
2024-04-09T06:00:16.652Z,15.20
2024-04-09T06:02:47.496Z,15.20
2024-04-09T06:05:18.881Z,15.30
2024-04-09T06:07:50.011Z,15.30
2024-04-09T06:10:19.513Z,15.40
2024-04-09T06:12:46.756Z,15.40
2024-04-09T06:15:14.143Z,15.40
2024-04-09T06:17:41.587Z,15.40
2024-04-09T06:20:09.566Z,15.30
2024-04-09T06:22:37.039Z,15.30
2024-04-09T06:25:04.668Z,15.30
2024-04-09T06:27:32.121Z,15.40
2024-04-09T06:29:59.550Z,15.40
2024-04-09T06:32:28.887Z,15.50
2024-04-09T06:34:56.063Z,15.50
2024-04-09T06:37:23.315Z,15.50
2024-04-09T06:39:50.716Z,15.60
2024-04-09T06:42:17.982Z,15.60
2024-04-09T06:44:45.243Z,15.60
2024-04-09T06:47:12.355Z,15.60
2024-04-09T06:49:39.733Z,15.60
2024-04-09T06:52:07.001Z,15.70
2024-04-09T06:54:34.452Z,15.70
2024-04-09T06:57:01.657Z,15.80
2024-04-09T06:59:28.853Z,15.80
2024-04-09T07:01:56.068Z,15.90
2024-04-09T07:04:23.449Z,16.00
2024-04-09T07:06:51.449Z,16.10
2024-04-09T07:09:21.754Z,16.10
2024-04-09T07:11:48.954Z,16.20
2024-04-09T07:14:16.536Z,16.20
2024-04-09T07:16:48.113Z,16.20
2024-04-09T07:19:15.623Z,16.30
2024-04-09T07:21:42.994Z,16.30
2024-04-09T07:24:11.105Z,16.40
2024-04-09T07:26:38.470Z,16.40
2024-04-09T07:29:05.946Z,16.50
2024-04-09T07:31:33.515Z,16.60
2024-04-09T07:34:01.124Z,16.70
2024-04-09T07:36:28.583Z,16.80
2024-04-09T07:38:57.271Z,16.90
2024-04-09T07:41:24.923Z,17.00
2024-04-09T07:43:52.305Z,17.00
2024-04-09T07:46:20.844Z,17.10
2024-04-09T07:48:48.475Z,17.20
2024-04-09T07:51:16.068Z,17.30
2024-04-09T07:53:43.379Z,17.40
2024-04-09T07:56:12.866Z,17.40
2024-04-09T07:58:40.245Z,17.40
2024-04-09T08:01:08.536Z,17.50
2024-04-09T08:03:36.396Z,17.50
2024-04-09T08:06:05.618Z,17.60
2024-04-09T08:08:38.327Z,17.70
2024-04-09T08:11:11.927Z,17.80
2024-04-09T08:13:39.546Z,17.90
2024-04-09T08:16:07.616Z,18.00
2024-04-09T08:18:35.158Z,18.10
2024-04-09T08:21:02.538Z,18.10
2024-04-09T08:23:30.750Z,18.10
2024-04-09T08:25:59.366Z,18.20
2024-04-09T08:28:26.414Z,18.20
2024-04-09T08:30:53.670Z,18.20
2024-04-09T08:33:21.750Z,18.30
2024-04-09T08:35:50.103Z,18.30
2024-04-09T08:38:23.877Z,18.30
2024-04-09T08:40:51.062Z,18.40
2024-04-09T08:43:19.463Z,18.40
2024-04-09T08:45:47.756Z,18.50
2024-04-09T08:48:18.323Z,18.50
2024-04-09T08:50:54.237Z,18.60
2024-04-09T08:53:25.133Z,18.60
2024-04-09T08:55:53.876Z,18.70
2024-04-09T08:58:21.548Z,18.70
2024-04-09T09:00:49.003Z,18.70
2024-04-09T09:03:16.863Z,18.80
2024-04-09T09:05:44.435Z,18.80
2024-04-09T09:08:11.484Z,18.90
2024-04-09T09:10:39.547Z,19.00
2024-04-09T09:13:07.088Z,19.00
2024-04-09T09:15:35.098Z,19.10
2024-04-09T09:18:02.911Z,19.10
2024-04-09T09:20:30.766Z,19.20
2024-04-09T09:22:57.965Z,19.20
2024-04-09T09:25:27.600Z,19.30
2024-04-09T09:28:10.970Z,19.30
2024-04-09T09:30:47.466Z,19.30
2024-04-09T09:33:23.984Z,19.30
2024-04-09T09:35:52.103Z,19.30
2024-04-09T09:38:20.806Z,19.40
2024-04-09T09:40:52.788Z,19.40
2024-04-09T09:43:24.037Z,19.50
2024-04-09T09:45:51.457Z,19.50
2024-04-09T09:48:23.054Z,19.60
2024-04-09T09:50:50.601Z,19.60
2024-04-09T09:53:21.433Z,19.60
2024-04-09T09:55:52.783Z,19.70
2024-04-09T09:58:26.923Z,19.80
2024-04-09T10:00:54.628Z,19.80
2024-04-09T10:03:22.651Z,19.80
2024-04-09T10:05:50.658Z,19.90
2024-04-09T10:08:21.660Z,20.00
2024-04-09T10:10:52.964Z,20.00
2024-04-09T10:13:25.264Z,20.10
2024-04-09T10:15:56.205Z,20.10
2024-04-09T10:18:32.405Z,20.10
2024-04-09T10:20:59.891Z,20.10
2024-04-09T10:23:27.387Z,20.10
2024-04-09T10:25:58.317Z,20.10
2024-04-09T10:28:34.067Z,20.10
2024-04-09T10:31:15.008Z,20.20
2024-04-09T10:33:42.871Z,20.20
2024-04-09T10:36:15.763Z,20.30
2024-04-09T10:38:44.325Z,20.40
2024-04-09T10:41:13.533Z,20.50
2024-04-09T10:43:41.149Z,20.60
2024-04-09T10:46:13.966Z,20.60
2024-04-09T10:48:44.097Z,20.70
2024-04-09T10:51:12.691Z,20.70
2024-04-09T10:53:40.219Z,20.80
2024-04-09T10:56:08.975Z,20.80
2024-04-09T10:58:40.619Z,20.80
2024-04-09T11:01:14.909Z,20.80
2024-04-09T11:03:42.955Z,20.90
2024-04-09T11:06:16.962Z,21.00
2024-04-09T11:08:46.350Z,21.00
2024-04-09T11:11:13.926Z,21.00
2024-04-09T11:13:42.127Z,21.00
2024-04-09T11:16:18.715Z,21.10
2024-04-09T11:18:59.452Z,21.10
2024-04-09T11:21:30.031Z,21.10
2024-04-09T11:23:57.656Z,21.20
2024-04-09T11:26:27.117Z,21.20
2024-04-09T11:28:54.318Z,21.30
2024-04-09T11:31:22.938Z,21.30
2024-04-09T11:33:53.596Z,21.30
2024-04-09T11:36:29.938Z,21.30
2024-04-09T11:38:59.650Z,21.30
2024-04-09T11:41:26.846Z,21.30
2024-04-09T11:44:01.462Z,21.30
2024-04-09T11:46:28.634Z,21.40
2024-04-09T11:49:01.615Z,21.40
2024-04-09T11:51:30.590Z,21.40
2024-04-09T11:53:57.764Z,21.40
2024-04-09T11:56:24.881Z,21.50
2024-04-09T11:58:51.944Z,21.50
2024-04-09T12:01:19.294Z,21.40
2024-04-09T12:03:46.627Z,21.40
2024-04-09T12:06:14.197Z,21.50
2024-04-09T12:08:41.546Z,21.50
2024-04-09T12:11:09.961Z,21.50
2024-04-09T12:13:37.587Z,21.60
2024-04-09T12:16:04.962Z,21.60
2024-04-09T12:18:33.300Z,21.60
2024-04-09T12:21:00.614Z,21.60
2024-04-09T12:23:27.990Z,21.60
2024-04-09T12:25:55.504Z,21.70
2024-04-09T12:28:22.705Z,21.70
2024-04-09T12:30:50.236Z,21.70
2024-04-09T12:33:20.876Z,21.70
2024-04-09T12:35:48.144Z,21.70
2024-04-09T12:38:15.819Z,21.70
2024-04-09T12:40:42.929Z,21.70
2024-04-09T12:43:10.003Z,21.70
2024-04-09T12:45:37.293Z,21.70
2024-04-09T12:48:05.026Z,21.70
2024-04-09T12:50:32.597Z,21.70
2024-04-09T12:52:59.792Z,21.80
2024-04-09T12:55:26.858Z,21.80
2024-04-09T12:57:54.050Z,21.80
2024-04-09T13:00:40.364Z,21.80
2024-04-09T13:03:09.990Z,21.80
2024-04-09T13:05:37.804Z,21.80
2024-04-09T13:08:07.842Z,21.90
2024-04-09T13:10:35.463Z,21.90
2024-04-09T13:13:02.652Z,21.90
2024-04-09T13:18:00.317Z,21.90
2024-04-09T13:20:27.717Z,21.80
2024-04-09T13:22:55.230Z,21.80
2024-04-09T13:25:22.456Z,21.80
2024-04-09T13:27:49.528Z,21.70
2024-04-09T13:30:16.615Z,21.70
2024-04-09T13:32:44.240Z,21.70
2024-04-09T13:35:11.567Z,21.70
2024-04-09T13:37:42.519Z,21.60
2024-04-09T13:40:13.402Z,21.60
2024-04-09T13:42:49.506Z,21.60
2024-04-09T13:45:16.997Z,21.60
2024-04-09T13:47:47.576Z,21.60
2024-04-09T13:50:18.393Z,21.50
2024-04-09T13:52:46.831Z,21.50
2024-04-09T13:55:14.268Z,21.50
2024-04-09T13:57:41.407Z,21.50
2024-04-09T14:00:10.199Z,21.50
2024-04-09T14:02:38.255Z,21.50
2024-04-09T14:05:06.728Z,21.50
2024-04-09T14:07:33.915Z,21.50
2024-04-09T14:10:01.149Z,21.50
2024-04-09T14:12:28.408Z,21.50
2024-04-09T14:14:56.084Z,21.50
2024-04-09T14:17:24.325Z,21.50
2024-04-09T14:19:55.203Z,21.50
2024-04-09T14:22:22.546Z,21.50
2024-04-09T14:24:49.703Z,21.50
2024-04-09T14:27:16.839Z,21.50
2024-04-09T14:29:44.294Z,21.50
2024-04-09T14:32:11.573Z,21.50
2024-04-09T14:34:38.729Z,21.50
2024-04-09T14:37:05.814Z,21.50
2024-04-09T14:39:32.855Z,21.50
2024-04-09T14:41:59.991Z,21.50
2024-04-09T14:44:27.398Z,21.50
2024-04-09T14:46:54.664Z,21.40
2024-04-09T14:49:21.842Z,21.40
2024-04-09T14:51:48.920Z,21.40
2024-04-09T14:54:16.023Z,21.40
2024-04-09T14:56:43.129Z,21.40
2024-04-09T14:59:10.358Z,21.40
2024-04-09T15:01:37.464Z,21.30
2024-04-09T15:04:04.750Z,21.40
2024-04-09T15:06:33.293Z,21.40
2024-04-09T15:09:00.457Z,21.40
2024-04-09T15:11:27.885Z,21.40
2024-04-09T15:13:55.231Z,21.40
2024-04-09T15:16:22.399Z,21.50
2024-04-09T15:18:49.563Z,21.40
2024-04-09T15:21:16.627Z,21.40
2024-04-09T15:23:45.597Z,21.30
2024-04-09T15:26:12.779Z,21.30
2024-04-09T15:28:40.071Z,21.20
2024-04-09T15:31:09.611Z,21.20
2024-04-09T15:33:37.279Z,21.10
2024-04-09T15:36:05.046Z,21.10
2024-04-09T15:38:32.604Z,21.10
2024-04-09T15:41:00.588Z,21.10
2024-04-09T15:43:28.672Z,21.10
2024-04-09T15:45:55.826Z,21.00
2024-04-09T15:48:24.130Z,21.00
2024-04-09T15:50:51.419Z,20.90
2024-04-09T15:53:18.560Z,20.90
2024-04-09T15:55:45.715Z,20.80
2024-04-09T15:58:12.907Z,20.80
2024-04-09T16:00:40.510Z,20.80
2024-04-09T16:03:07.952Z,20.70
2024-04-09T16:05:35.515Z,20.70
2024-04-09T16:08:02.855Z,20.60
2024-04-09T16:10:30.228Z,20.60
2024-04-09T16:12:57.290Z,20.60
2024-04-09T16:15:24.456Z,20.50
2024-04-09T16:17:52.551Z,20.50
2024-04-09T16:20:19.996Z,20.40
2024-04-09T16:22:47.196Z,20.40
2024-04-09T16:25:15.466Z,20.40
2024-04-09T16:27:42.622Z,20.30
2024-04-09T16:30:12.006Z,20.20
2024-04-09T16:32:41.613Z,20.20
2024-04-09T16:35:09.723Z,20.20
2024-04-09T16:37:38.251Z,20.20
2024-04-09T16:40:06.795Z,20.20
2024-04-09T16:42:34.131Z,20.20
2024-04-09T16:45:05.481Z,20.20
2024-04-09T16:47:32.921Z,20.20
2024-04-09T16:50:00.397Z,20.20
2024-04-09T16:52:27.495Z,20.20
2024-04-09T16:54:54.628Z,20.20
2024-04-09T16:57:32.786Z,20.10
2024-04-09T17:00:05.730Z,20.10
2024-04-09T17:02:32.917Z,20.00
2024-04-09T17:05:00.292Z,19.90
2024-04-09T17:07:27.566Z,19.90
2024-04-09T17:09:54.660Z,19.90
2024-04-09T17:12:22.076Z,19.80
2024-04-09T17:14:52.502Z,19.80
2024-04-09T17:17:20.256Z,19.70
2024-04-09T17:19:48.187Z,19.70
2024-04-09T17:22:16.171Z,19.60
2024-04-09T17:24:45.489Z,19.60
2024-04-09T17:27:12.622Z,19.60
2024-04-09T17:29:40.010Z,19.60
2024-04-09T17:32:07.600Z,19.60
2024-04-09T17:34:34.897Z,19.60
2024-04-09T17:37:02.122Z,19.60
2024-04-09T17:39:29.225Z,19.50
2024-04-09T17:41:56.913Z,19.50
2024-04-09T17:44:24.173Z,19.40
2024-04-09T17:46:51.328Z,19.30
2024-04-09T17:49:20.166Z,19.30
2024-04-09T17:51:47.592Z,19.20
2024-04-09T17:54:14.702Z,19.20
2024-04-09T17:56:41.761Z,19.20
2024-04-09T17:59:09.446Z,19.10
2024-04-09T18:01:39.657Z,19.10
2024-04-09T18:04:09.494Z,19.10
2024-04-09T18:06:36.732Z,19.10
2024-04-09T18:09:06.026Z,19.10
2024-04-09T18:11:33.651Z,19.00
2024-04-09T18:14:01.977Z,19.00
2024-04-09T18:16:29.290Z,19.00
2024-04-09T18:18:56.462Z,18.90
2024-04-09T18:21:24.784Z,18.90
2024-04-09T18:23:51.870Z,18.90
2024-04-09T18:26:21.546Z,18.90
2024-04-09T18:28:49.586Z,18.90
2024-04-09T18:31:16.884Z,18.80
2024-04-09T18:33:46.024Z,18.80
2024-04-09T18:36:14.098Z,18.80
2024-04-09T18:38:41.433Z,18.80
2024-04-09T18:41:10.426Z,18.80
2024-04-09T18:43:38.580Z,18.70
2024-04-09T18:46:05.947Z,18.70
2024-04-09T18:48:33.529Z,18.70
2024-04-09T18:51:03.588Z,18.70
2024-04-09T18:53:34.406Z,18.60
2024-04-09T18:56:02.089Z,18.60
2024-04-09T18:58:30.417Z,18.60
2024-04-09T19:00:57.636Z,18.60
2024-04-09T19:03:25.058Z,18.60
2024-04-09T19:05:53.092Z,18.60
2024-04-09T19:08:20.422Z,18.60
2024-04-09T19:10:47.604Z,18.60
2024-04-09T19:13:14.881Z,18.60
2024-04-09T19:15:42.112Z,18.60
2024-04-09T19:18:09.482Z,18.70
2024-04-09T19:20:36.954Z,18.70
2024-04-09T19:23:04.338Z,18.70
2024-04-09T19:25:31.491Z,18.60
2024-04-09T19:27:58.603Z,18.60
2024-04-09T19:30:26.350Z,18.60
2024-04-09T19:32:53.592Z,18.50
2024-04-09T19:35:20.899Z,18.50
2024-04-09T19:37:48.218Z,18.50
2024-04-09T19:40:15.937Z,18.50
2024-04-09T19:42:43.230Z,18.50
2024-04-09T19:45:10.381Z,18.40
2024-04-09T19:47:37.828Z,18.30
2024-04-09T19:50:05.786Z,18.30
2024-04-09T19:52:34.380Z,18.20
2024-04-09T19:55:01.472Z,18.20
2024-04-09T19:57:30.255Z,18.20
2024-04-09T19:59:58.527Z,18.10
2024-04-09T20:02:27.157Z,18.10
2024-04-09T20:04:55.172Z,18.10
2024-04-09T20:07:24.040Z,18.10
2024-04-09T20:09:51.207Z,18.10
2024-04-09T20:12:21.743Z,18.10
2024-04-09T20:14:49.600Z,18.10
2024-04-09T20:17:17.667Z,18.10
2024-04-09T20:19:45.813Z,18.00
2024-04-09T20:22:13.082Z,18.10
2024-04-09T20:24:41.180Z,18.00
2024-04-09T20:27:08.385Z,18.00
2024-04-09T20:29:35.623Z,17.90
2024-04-09T20:32:03.984Z,17.90
2024-04-09T20:34:31.383Z,17.90
2024-04-09T20:36:59.348Z,17.90
2024-04-09T20:39:26.642Z,17.90
2024-04-09T20:41:54.580Z,17.90
2024-04-09T20:44:22.079Z,17.90
2024-04-09T20:46:50.033Z,17.90
2024-04-09T20:49:17.498Z,17.90
2024-04-09T20:51:44.840Z,17.90
2024-04-09T20:54:11.985Z,17.80
2024-04-09T20:56:39.221Z,17.80
2024-04-09T20:59:06.458Z,17.70
2024-04-09T21:01:35.395Z,17.70
2024-04-09T21:04:03.752Z,17.70
2024-04-09T21:06:30.940Z,17.70
2024-04-09T21:08:58.075Z,17.70
2024-04-09T21:11:25.193Z,17.70
2024-04-09T21:13:52.490Z,17.70
2024-04-09T21:16:20.094Z,17.70
2024-04-09T21:18:47.663Z,17.70
2024-04-09T21:21:15.948Z,17.70
2024-04-09T21:23:43.110Z,17.70
2024-04-09T21:26:10.883Z,17.70
2024-04-09T21:28:38.758Z,17.70
2024-04-09T21:31:06.065Z,17.60
2024-04-09T21:33:33.394Z,17.60
2024-04-09T21:36:00.636Z,17.60
2024-04-09T21:38:27.984Z,17.50
2024-04-09T21:41:08.266Z,17.50
2024-04-09T21:43:35.381Z,17.40
2024-04-09T21:46:02.454Z,17.40
2024-04-09T21:48:29.708Z,17.50
2024-04-09T21:50:57.477Z,17.50
2024-04-09T21:53:25.910Z,17.50
2024-04-09T21:55:53.400Z,17.50
2024-04-09T21:58:20.474Z,17.50
2024-04-09T22:00:54.880Z,17.50
2024-04-09T22:03:23.618Z,17.50
2024-04-09T22:05:51.106Z,17.50
2024-04-09T22:08:18.657Z,17.60
2024-04-09T22:10:46.883Z,17.50
2024-04-09T22:13:14.051Z,17.50
2024-04-09T22:15:41.391Z,17.50
2024-04-09T22:18:08.711Z,17.60
2024-04-09T22:20:42.972Z,17.60
2024-04-09T22:23:15.856Z,17.60
2024-04-09T22:25:43.675Z,17.60
2024-04-09T22:28:11.562Z,17.60
2024-04-09T22:30:39.694Z,17.60
2024-04-09T22:33:10.213Z,17.60
2024-04-09T22:35:37.811Z,17.60
2024-04-09T22:38:05.206Z,17.60
2024-04-09T22:40:33.230Z,17.60
2024-04-09T22:43:00.476Z,17.60
2024-04-09T22:45:28.200Z,17.60
2024-04-09T22:47:55.450Z,17.60
2024-04-09T22:50:22.776Z,17.60
2024-04-09T22:52:50.042Z,17.50
2024-04-09T22:55:17.618Z,17.50
2024-04-09T22:57:44.733Z,17.60
2024-04-09T23:00:13.489Z,17.60
2024-04-09T23:02:41.770Z,17.60
2024-04-09T23:05:11.573Z,17.60
2024-04-09T23:07:38.950Z,17.60
2024-04-09T23:10:06.646Z,17.60
2024-04-09T23:12:34.658Z,17.50
2024-04-09T23:15:01.782Z,17.50
2024-04-09T23:17:29.398Z,17.50
2024-04-09T23:19:56.788Z,17.40
2024-04-09T23:22:24.570Z,17.40
2024-04-09T23:24:51.678Z,17.40
2024-04-09T23:27:18.842Z,17.40
2024-04-09T23:29:45.972Z,17.40
2024-04-09T23:32:13.073Z,17.30
2024-04-09T23:34:40.187Z,17.30
2024-04-09T23:37:07.904Z,17.30
2024-04-09T23:39:34.983Z,17.30
2024-04-09T23:42:05.503Z,17.20
2024-04-09T23:44:34.075Z,17.20
2024-04-09T23:47:02.696Z,17.20
2024-04-09T23:49:31.075Z,17.20
2024-04-09T23:51:58.236Z,17.20
2024-04-09T23:54:25.614Z,17.20
2024-04-09T23:56:53.117Z,17.10
2024-04-09T23:59:20.468Z,17.10
